Time;durP1;ratioP1;P1;durP2;ratioP2;P2;SDS_P1;SDS_P2;PMS_P1;PMS_P2;Temp;Humidity;BMP_temperature;BMP_pressure;BME280_temperature;BME280_humidity;BME280_pressure;Samples;Min_cycle;Max_cycle;Signal;HPM_P1;HPM_P2
2022/10/12 00:01:53;;;;;;;7.00;5.20;;;11.30;99.90;;;;;;5036859;28;20403;-80
2022/10/12 00:04:37;;;;;;;8.60;4.40;;;11.20;99.90;;;;;;5037345;28;20418;-80
2022/10/12 00:07:22;;;;;;;14.97;6.03;;;11.20;99.90;;;;;;5037345;28;20403;-79
2022/10/12 00:10:06;;;;;;;6.47;4.80;;;11.10;99.90;;;;;;5028832;28;20431;-81
2022/10/12 00:12:50;;;;;;;10.47;5.90;;;11.10;99.90;;;;;;5012514;28;20383;-81
2022/10/12 00:15:38;;;;;;;7.60;5.73;;;11.10;99.90;;;;;;5025250;28;20383;-80
2022/10/12 00:18:22;;;;;;;10.20;5.70;;;11.10;99.90;;;;;;5025712;28;20462;-81
2022/10/12 00:21:11;;;;;;;5.77;5.20;;;11.10;99.90;;;;;;5026169;28;20443;-81
2022/10/12 00:23:59;;;;;;;5.93;5.27;;;11.00;99.90;;;;;;5011624;28;20443;-79
2022/10/12 00:26:44;;;;;;;5.67;4.70;;;11.00;99.90;;;;;;5024540;28;20387;-80
2022/10/12 00:29:28;;;;;;;8.80;5.40;;;10.90;99.90;;;;;;5025029;28;20396;-82
2022/10/12 00:32:12;;;;;;;6.43;4.43;;;11.00;99.90;;;;;;5025788;28;20387;-82
2022/10/12 00:34:56;;;;;;;5.30;4.83;;;10.90;99.90;;;;;;5026353;28;20472;-82
2022/10/12 00:37:40;;;;;;;13.63;4.10;;;11.00;99.90;;;;;;5026651;28;20386;-81
2022/10/12 00:40:24;;;;;;;9.97;5.00;;;11.00;99.90;;;;;;5025586;28;20391;-81
2022/10/12 00:43:30;;;;;;;6.80;5.43;;;11.00;99.90;;;;;;5025376;28;20829;-81
2022/10/12 00:46:24;;;;;;;12.40;5.60;;;11.10;99.90;;;;;;4979003;28;20441;-82
2022/10/12 00:49:18;;;;;;;9.70;6.00;;;11.10;99.90;;;;;;4984855;28;20744;-81
2022/10/12 00:52:08;;;;;;;8.90;5.00;;;11.10;99.90;;;;;;4985376;28;20437;-81
2022/10/12 00:54:54;;;;;;;7.67;4.60;;;11.10;99.90;;;;;;4970868;28;20418;-81
2022/10/12 00:57:38;;;;;;;7.33;5.30;;;11.00;99.90;;;;;;4958073;28;20445;-81
2022/10/12 01:00:22;;;;;;;8.63;5.50;;;11.00;99.90;;;;;;4971950;28;20405;-81
2022/10/12 01:03:10;;;;;;;7.70;5.13;;;10.90;99.90;;;;;;4986318;28;20452;-81
2022/10/12 01:05:55;;;;;;;4.73;4.33;;;11.00;99.90;;;;;;4986933;28;20432;-79
2022/10/12 01:08:41;;;;;;;8.83;4.63;;;11.00;99.90;;;;;;5014077;28;20416;-79
2022/10/12 01:11:25;;;;;;;4.33;3.40;;;11.00;99.90;;;;;;5014233;28;20432;-78
2022/10/12 01:14:10;;;;;;;6.57;3.77;;;11.00;99.90;;;;;;4985282;28;20541;-81
2022/10/12 01:17:04;;;;;;;6.37;4.80;;;11.00;99.90;;;;;;5005203;28;20418;-80
2022/10/12 01:20:12;;;;;;;5.53;4.73;;;10.90;99.90;;;;;;5025911;28;20971;-80
2022/10/12 01:23:22;;;;;;;5.27;4.20;;;10.90;99.90;;;;;;5025706;28;20952;-81
2022/10/12 01:26:41;;;;;;;7.23;4.13;;;10.80;99.90;;;;;;5025320;28;20392;-82
2022/10/12 01:30:01;;;;;;;13.67;5.03;;;10.70;99.90;;;;;;5025475;28;20403;-82
2022/10/12 01:33:03;;;;;;;6.07;4.17;;;10.70;99.90;;;;;;5034355;28;20395;-78
2022/10/12 01:36:06;;;;;;;5.17;4.57;;;10.60;99.90;;;;;;5029682;28;20387;-81
2022/10/12 01:39:03;;;;;;;5.40;5.00;;;10.50;99.90;;;;;;5026233;28;20411;-81
2022/10/12 01:41:53;;;;;;;8.63;4.10;;;10.50;99.90;;;;;;5028715;28;20380;-81
2022/10/12 01:44:37;;;;;;;4.80;4.37;;;10.50;99.90;;;;;;5028208;28;20770;-81
2022/10/12 01:47:21;;;;;;;6.17;3.83;;;10.50;99.90;;;;;;5028540;28;20442;-81
2022/10/12 01:50:09;;;;;;;5.17;4.50;;;10.40;99.90;;;;;;5028710;28;20416;-81
2022/10/12 01:53:20;;;;;;;5.57;3.83;;;10.40;99.90;;;;;;5028288;28;20376;-81
2022/10/12 01:56:16;;;;;;;5.90;4.87;;;10.30;99.90;;;;;;5027999;28;20468;-81
2022/10/12 01:59:17;;;;;;;7.63;5.97;;;10.30;99.90;;;;;;5027554;28;20524;-81
2022/10/12 02:02:15;;;;;;;12.37;4.70;;;10.30;99.90;;;;;;5028222;28;20398;-80
2022/10/12 02:05:09;;;;;;;4.27;3.87;;;10.30;99.90;;;;;;5027690;28;20412;-81
2022/10/12 02:08:05;;;;;;;6.93;3.80;;;10.30;99.90;;;;;;5028120;28;20388;-81
2022/10/12 02:11:05;;;;;;;5.03;4.63;;;10.30;99.90;;;;;;5027516;28;20404;-81
2022/10/12 02:13:56;;;;;;;7.40;4.70;;;10.20;99.90;;;;;;5028325;28;20443;-79
2022/10/12 02:16:47;;;;;;;9.27;5.87;;;10.20;99.90;;;;;;5026803;28;20400;-79
2022/10/12 02:19:36;;;;;;;6.43;4.03;;;10.20;99.90;;;;;;5009856;28;20471;-81
2022/10/12 02:22:23;;;;;;;8.50;5.20;;;10.10;99.90;;;;;;5028400;28;20423;-81
2022/10/12 02:25:14;;;;;;;7.67;4.47;;;10.10;99.90;;;;;;5037879;28;20415;-78
2022/10/12 02:28:05;;;;;;;10.57;4.37;;;10.10;99.90;;;;;;5037917;28;20411;-78
2022/10/12 02:30:58;;;;;;;6.43;3.60;;;10.10;99.90;;;;;;5037847;28;20411;-78
2022/10/12 02:33:55;;;;;;;3.67;3.40;;;10.10;99.90;;;;;;5038437;28;20460;-78
2022/10/12 02:36:55;;;;;;;6.67;4.03;;;10.00;99.90;;;;;;5037208;28;20415;-79
2022/10/12 02:39:49;;;;;;;6.60;4.53;;;10.10;99.90;;;;;;5038219;28;20400;-78
2022/10/12 02:42:38;;;;;;;7.03;4.43;;;10.10;99.90;;;;;;5038340;28;20475;-78
2022/10/12 02:45:23;;;;;;;10.73;5.10;;;10.10;99.90;;;;;;5037513;28;20388;-78
2022/10/12 02:48:14;;;;;;;11.53;5.33;;;10.10;99.90;;;;;;5035529;28;20419;-81
2022/10/12 02:51:00;;;;;;;8.63;3.87;;;10.00;99.90;;;;;;5026711;28;20731;-81
2022/10/12 02:53:45;;;;;;;10.00;4.57;;;10.10;99.90;;;;;;5027433;28;20416;-81
2022/10/12 02:56:29;;;;;;;17.63;6.70;;;10.10;99.90;;;;;;5027938;28;20419;-81
2022/10/12 02:59:15;;;;;;;5.00;3.90;;;10.10;99.90;;;;;;5027708;28;20388;-81
2022/10/12 03:02:00;;;;;;;10.03;4.07;;;10.20;99.90;;;;;;5029085;28;20442;-81
2022/10/12 03:04:44;;;;;;;15.10;4.50;;;10.20;99.90;;;;;;5034293;28;20404;-78
2022/10/12 03:07:29;;;;;;;5.60;5.17;;;10.20;99.90;;;;;;5027719;28;20418;-81
2022/10/12 03:10:13;;;;;;;4.93;4.37;;;10.30;99.90;;;;;;5028464;28;20408;-80
2022/10/12 03:12:58;;;;;;;9.43;3.97;;;10.30;99.90;;;;;;5028792;28;20380;-81
2022/10/12 03:15:42;;;;;;;5.73;4.20;;;10.30;99.90;;;;;;5028327;28;20419;-81
2022/10/12 03:18:27;;;;;;;7.73;4.30;;;10.30;99.90;;;;;;5027454;28;20438;-81
2022/10/12 03:21:11;;;;;;;6.10;4.80;;;10.30;99.90;;;;;;5027648;28;20472;-81
2022/10/12 03:23:55;;;;;;;5.33;4.10;;;10.30;99.90;;;;;;5027740;28;20547;-81
2022/10/12 03:26:40;;;;;;;6.73;4.50;;;10.20;99.90;;;;;;5026252;28;20415;-82
2022/10/12 03:29:24;;;;;;;8.90;5.27;;;10.20;99.90;;;;;;5026380;28;20935;-81
2022/10/12 03:32:09;;;;;;;8.97;4.80;;;10.30;99.90;;;;;;5028384;28;20408;-80
2022/10/12 03:34:53;;;;;;;8.53;4.57;;;10.20;99.90;;;;;;5033470;28;20422;-77
2022/10/12 03:37:37;;;;;;;17.20;4.10;;;10.30;99.90;;;;;;5034424;28;20395;-80
2022/10/12 03:40:22;;;;;;;8.40;5.00;;;10.20;99.90;;;;;;5031857;28;20396;-80
2022/10/12 03:43:06;;;;;;;8.23;5.33;;;10.20;99.90;;;;;;5026632;28;20447;-81
2022/10/12 03:45:51;;;;;;;6.70;4.70;;;10.20;99.90;;;;;;5025672;28;20403;-81
2022/10/12 03:48:35;;;;;;;8.53;3.67;;;10.20;99.90;;;;;;5010530;28;20396;-80
2022/10/12 03:51:19;;;;;;;4.73;3.30;;;10.00;99.90;;;;;;5021381;28;20383;-80
2022/10/12 03:54:04;;;;;;;4.53;4.13;;;9.90;99.90;;;;;;5025203;28;20443;-81
2022/10/12 03:56:48;;;;;;;9.83;4.50;;;9.90;99.90;;;;;;5019325;28;20500;-81
2022/10/12 03:59:32;;;;;;;6.30;4.10;;;9.80;99.90;;;;;;5025378;28;20423;-81
2022/10/12 04:02:16;;;;;;;12.33;4.60;;;9.80;99.90;;;;;;5024621;28;20400;-81
2022/10/12 04:05:01;;;;;;;5.67;4.20;;;9.70;99.90;;;;;;5025247;28;20387;-81
2022/10/12 04:07:44;;;;;;;5.53;4.07;;;9.70;99.90;;;;;;5024170;28;20403;-81
2022/10/12 04:10:29;;;;;;;5.23;4.17;;;9.60;99.90;;;;;;5025825;28;20400;-81
2022/10/12 04:13:13;;;;;;;7.53;5.07;;;9.60;99.90;;;;;;5025109;28;20390;-81
2022/10/12 04:16:02;;;;;;;10.83;3.70;;;9.50;99.90;;;;;;5025240;28;20461;-80
2022/10/12 04:18:46;;;;;;;6.80;4.90;;;9.50;99.90;;;;;;5026208;28;20504;-81
2022/10/12 04:21:30;;;;;;;7.20;4.40;;;9.50;99.90;;;;;;5026272;28;20407;-81
2022/10/12 04:24:15;;;;;;;6.17;4.60;;;9.50;99.90;;;;;;5026192;28;20451;-81
2022/10/12 04:26:59;;;;;;;7.20;4.50;;;9.50;99.90;;;;;;5025745;28;20415;-81
2022/10/12 04:29:43;;;;;;;4.83;4.27;;;9.50;99.90;;;;;;5025504;28;20404;-81
2022/10/12 04:32:27;;;;;;;5.23;3.90;;;9.40;99.90;;;;;;5026086;28;20386;-81
2022/10/12 04:35:11;;;;;;;9.37;4.30;;;9.40;99.90;;;;;;5026119;28;20423;-82
2022/10/12 04:37:55;;;;;;;9.40;5.33;;;9.40;99.90;;;;;;5024202;28;20411;-81
2022/10/12 04:40:40;;;;;;;5.43;4.77;;;9.50;99.90;;;;;;5026355;28;20431;-81
2022/10/12 04:43:24;;;;;;;6.80;5.47;;;9.40;99.90;;;;;;5025315;28;20793;-80
2022/10/12 04:46:08;;;;;;;4.90;4.40;;;9.40;99.90;;;;;;5025346;28;20419;-81
2022/10/12 04:48:52;;;;;;;7.30;4.67;;;9.30;99.90;;;;;;5024905;28;20434;-81
2022/10/12 04:51:36;;;;;;;6.07;4.20;;;9.30;99.90;;;;;;5010991;28;20388;-80
2022/10/12 04:54:21;;;;;;;5.37;4.00;;;9.30;99.90;;;;;;5024574;28;20411;-81
2022/10/12 04:57:06;;;;;;;5.63;4.97;;;9.20;99.90;;;;;;5024277;28;20488;-80
2022/10/12 04:59:50;;;;;;;8.40;5.80;;;9.20;99.90;;;;;;5032082;28;20539;-78
2022/10/12 05:02:35;;;;;;;6.00;4.53;;;9.20;99.90;;;;;;5033421;28;20759;-82
2022/10/12 05:05:19;;;;;;;6.93;4.50;;;9.20;99.90;;;;;;5027104;28;20438;-81
2022/10/12 05:08:03;;;;;;;8.23;4.77;;;9.20;99.90;;;;;;5026094;28;20531;-81
2022/10/12 05:10:48;;;;;;;9.50;4.67;;;9.20;99.90;;;;;;5026213;28;20426;-80
2022/10/12 05:13:32;;;;;;;12.50;5.13;;;9.20;99.90;;;;;;5024542;28;20435;-82
2022/10/12 05:16:16;;;;;;;8.87;4.73;;;9.20;99.90;;;;;;5029543;28;20450;-80
2022/10/12 05:19:00;;;;;;;13.20;5.90;;;9.10;99.90;;;;;;5029683;28;20458;-81
2022/10/12 05:21:44;;;;;;;13.20;5.30;;;9.10;99.90;;;;;;5029125;28;20547;-80
2022/10/12 05:24:28;;;;;;;7.80;5.30;;;9.10;99.90;;;;;;5028969;28;20463;-80
2022/10/12 05:27:13;;;;;;;12.90;5.63;;;9.20;99.90;;;;;;5028910;28;20435;-82
2022/10/12 05:29:57;;;;;;;16.20;5.60;;;9.20;99.90;;;;;;5029060;28;20384;-82
2022/10/12 05:32:43;;;;;;;7.67;5.23;;;9.20;99.90;;;;;;5025887;28;20399;-81
2022/10/12 05:35:27;;;;;;;13.73;5.87;;;9.10;99.90;;;;;;5007881;28;20466;-82
2022/10/12 05:38:11;;;;;;;6.73;4.90;;;9.20;99.90;;;;;;5008418;28;20388;-82
2022/10/12 05:40:56;;;;;;;9.20;5.50;;;9.20;99.90;;;;;;5020987;28;20504;-82
2022/10/12 05:43:40;;;;;;;6.20;5.33;;;9.10;99.90;;;;;;5019223;28;20451;-80
2022/10/12 05:46:24;;;;;;;5.90;5.27;;;9.20;99.90;;;;;;5028557;28;20379;-82
2022/10/12 05:49:09;;;;;;;9.47;5.87;;;9.10;99.90;;;;;;5027007;28;20431;-82
2022/10/12 05:51:53;;;;;;;8.73;5.07;;;9.10;99.90;;;;;;5027452;28;20391;-82
2022/10/12 05:54:37;;;;;;;6.40;5.60;;;9.10;99.90;;;;;;5013889;28;20449;-82
2022/10/12 05:57:22;;;;;;;5.67;5.10;;;9.20;99.90;;;;;;5029123;28;20489;-82
2022/10/12 06:00:08;;;;;;;7.97;5.57;;;8.90;99.90;;;;;;5012796;28;20456;-82
2022/10/12 06:02:53;;;;;;;8.37;5.87;;;8.80;99.90;;;;;;5021138;28;20982;-82
2022/10/12 06:05:48;;;;;;;15.50;6.47;;;8.80;99.90;;;;;;5021064;28;20780;-82
2022/10/12 06:08:33;;;;;;;7.30;4.43;;;8.80;99.90;;;;;;5016285;28;20820;-81
2022/10/12 06:11:20;;;;;;;10.30;5.10;;;8.80;99.90;;;;;;5024429;28;20427;-82
2022/10/12 06:14:04;;;;;;;6.23;5.57;;;8.90;99.90;;;;;;5022906;28;20466;-82
2022/10/12 06:16:49;;;;;;;14.30;6.20;;;8.90;99.90;;;;;;5036866;28;20459;-81
2022/10/12 06:19:33;;;;;;;6.63;5.53;;;8.90;99.90;;;;;;5021257;28;20520;-80
2022/10/12 06:22:17;;;;;;;6.37;4.93;;;8.90;99.90;;;;;;5023937;28;20427;-81
2022/10/12 06:25:01;;;;;;;14.07;5.17;;;9.00;99.90;;;;;;5019891;28;20479;-82
2022/10/12 06:27:45;;;;;;;7.53;4.53;;;9.10;99.90;;;;;;5022050;28;20431;-81
2022/10/12 06:30:29;;;;;;;6.57;5.37;;;9.20;99.90;;;;;;5015565;28;20431;-81
2022/10/12 06:33:13;;;;;;;6.83;4.60;;;9.30;99.90;;;;;;5021186;28;20435;-81
2022/10/12 06:35:58;;;;;;;12.87;7.20;;;9.20;99.90;;;;;;5021005;28;20458;-81
2022/10/12 06:38:42;;;;;;;8.10;4.70;;;9.20;99.90;;;;;;5020245;28;20496;-83
2022/10/12 06:41:26;;;;;;;6.23;4.77;;;9.20;99.90;;;;;;5014255;28;20486;-80
2022/10/12 06:44:10;;;;;;;10.60;6.00;;;9.40;99.90;;;;;;5019739;28;20502;-82
2022/10/12 06:46:54;;;;;;;9.67;5.53;;;9.40;99.90;;;;;;5018894;28;20426;-81
2022/10/12 06:49:39;;;;;;;11.50;4.77;;;9.50;99.90;;;;;;5005468;28;20451;-82
2022/10/12 06:52:23;;;;;;;7.70;5.37;;;9.50;99.90;;;;;;5018291;28;20426;-83
2022/10/12 06:55:07;;;;;;;6.10;5.40;;;9.60;99.90;;;;;;5018220;28;20476;-82
2022/10/12 06:57:51;;;;;;;11.43;5.00;;;9.70;99.90;;;;;;5015839;28;20495;-81
2022/10/12 07:00:36;;;;;;;11.10;5.07;;;9.70;99.90;;;;;;5013254;28;20420;-77
2022/10/12 07:03:21;;;;;;;7.40;5.30;;;9.70;99.90;;;;;;4997828;28;20498;-81
2022/10/12 07:06:25;;;;;;;9.93;5.47;;;9.80;99.90;;;;;;5012144;28;20785;-79
2022/10/12 07:09:09;;;;;;;12.53;6.27;;;9.80;99.90;;;;;;5017129;28;20394;-81
2022/10/12 07:11:53;;;;;;;16.63;6.47;;;9.90;99.90;;;;;;5016063;28;20442;-81
2022/10/12 07:14:38;;;;;;;6.83;5.23;;;10.00;99.90;;;;;;5015002;28;20431;-81
2022/10/12 07:17:22;;;;;;;7.60;5.57;;;10.10;99.90;;;;;;5008941;28;20480;-82
2022/10/12 07:20:07;;;;;;;12.20;4.97;;;10.10;99.90;;;;;;5013515;28;20494;-81
2022/10/12 07:22:52;;;;;;;8.60;6.33;;;10.20;99.90;;;;;;5013983;28;20489;-81
2022/10/12 07:25:36;;;;;;;11.60;5.33;;;10.20;99.90;;;;;;5012375;28;20536;-81
2022/10/12 07:28:21;;;;;;;6.87;5.97;;;10.20;99.90;;;;;;5013602;28;21001;-80
2022/10/12 07:31:08;;;;;;;7.63;5.47;;;10.20;99.90;;;;;;5004782;28;20474;-80
2022/10/12 07:33:53;;;;;;;11.20;6.97;;;10.20;99.90;;;;;;5017108;28;20781;-80
2022/10/12 07:36:39;;;;;;;6.53;4.83;;;10.20;99.90;;;;;;5007189;28;20475;-81
2022/10/12 07:39:23;;;;;;;8.33;6.00;;;10.40;99.90;;;;;;5018694;28;20837;-81
2022/10/12 07:42:08;;;;;;;11.63;6.00;;;10.60;99.90;;;;;;5025702;28;20508;-80
2022/10/12 07:44:52;;;;;;;6.63;5.67;;;10.70;99.90;;;;;;5009052;28;20509;-80
2022/10/12 07:47:36;;;;;;;10.27;5.90;;;10.90;99.90;;;;;;5020447;28;20446;-82
2022/10/12 07:50:21;;;;;;;9.73;5.83;;;11.00;99.90;;;;;;5017086;28;20444;-79
2022/10/12 07:53:05;;;;;;;9.80;4.90;;;11.10;99.90;;;;;;5014736;28;20452;-81
2022/10/12 07:55:49;;;;;;;17.27;5.90;;;11.30;99.90;;;;;;5008111;28;20845;-82
2022/10/12 07:58:34;;;;;;;7.80;5.77;;;11.00;99.90;;;;;;5011147;28;20430;-81
2022/10/12 08:01:20;;;;;;;6.50;5.27;;;11.20;99.90;;;;;;5010031;28;20485;-81
2022/10/12 08:04:04;;;;;;;7.70;5.90;;;11.50;99.90;;;;;;5009738;28;20515;-81
2022/10/12 08:06:48;;;;;;;6.50;5.83;;;11.70;99.90;;;;;;5011070;28;20435;-82
2022/10/12 08:09:35;;;;;;;10.43;5.97;;;11.90;99.90;;;;;;5015833;28;20512;-82
2022/10/12 08:12:19;;;;;;;5.73;4.50;;;12.20;99.90;;;;;;5010228;28;20800;-80
2022/10/12 08:15:04;;;;;;;11.93;6.20;;;12.70;99.90;;;;;;5013112;28;20446;-82
2022/10/12 08:17:49;;;;;;;8.37;5.17;;;12.90;99.90;;;;;;5017250;28;20184;-82
2022/10/12 08:20:33;;;;;;;13.63;5.60;;;12.90;99.90;;;;;;5001957;28;20486;-81
2022/10/12 08:23:17;;;;;;;7.27;6.00;;;13.60;99.90;;;;;;4997566;28;20483;-82
2022/10/12 08:26:02;;;;;;;13.00;7.70;;;14.00;99.90;;;;;;4993297;28;20434;-81
2022/10/12 08:28:47;;;;;;;12.33;6.10;;;14.00;99.90;;;;;;5009901;28;20442;-82
2022/10/12 08:31:32;;;;;;;6.40;5.17;;;14.70;99.90;;;;;;5008736;28;20435;-83
2022/10/12 08:34:16;;;;;;;8.80;6.13;;;14.50;99.90;;;;;;5007895;28;20442;-82
2022/10/12 08:37:01;;;;;;;16.47;7.50;;;15.30;99.90;;;;;;5019852;28;20486;-80
2022/10/12 08:39:45;;;;;;;11.13;6.77;;;15.80;99.90;;;;;;5013503;28;20508;-82
2022/10/12 08:43:01;;;;;;;9.10;7.00;;;16.50;99.90;;;;;;5019187;28;20435;-80
2022/10/12 08:45:53;;;;;;;7.77;6.97;;;16.80;99.90;;;;;;5012228;28;20482;-82
2022/10/12 08:48:59;;;;;;;10.93;6.87;;;17.20;99.90;;;;;;5007886;28;20434;-81
2022/10/12 08:51:55;;;;;;;13.87;8.03;;;17.40;99.90;;;;;;4987564;28;20505;-81
2022/10/12 08:54:43;;;;;;;8.53;5.50;;;17.70;99.90;;;;;;5007635;28;20496;-82
2022/10/12 08:57:28;;;;;;;11.25;6.50;;;17.90;99.90;;;;;;5009491;28;20421;-78
2022/10/12 09:00:14;;;;;;;9.90;6.20;;;18.40;99.90;;;;;;5004765;28;20340;-81
2022/10/12 09:03:14;;;;;;;13.03;7.70;;;18.30;99.90;;;;;;5003226;28;20456;-81
2022/10/12 09:06:12;;;;;;;11.63;6.90;;;18.20;99.90;;;;;;5006557;28;20459;-81
2022/10/12 09:09:36;;;;;;;16.97;7.50;;;18.20;99.90;;;;;;5008723;28;21003;-82
2022/10/12 09:12:44;;;;;;;9.00;7.53;;;17.90;99.90;;;;;;4995688;28;20443;-80
2022/10/12 09:15:47;;;;;;;7.93;7.00;;;18.80;99.90;;;;;;5010191;28;20435;-82
2022/10/12 09:18:51;;;;;;;7.40;5.90;;;19.10;99.90;;;;;;5013135;28;20471;-83
2022/10/12 09:21:38;;;;;;;10.17;8.10;;;19.00;99.90;;;;;;5011988;28;20459;-82
2022/10/12 09:24:36;;;;;;;10.90;5.43;;;19.40;99.90;;;;;;4994465;28;20564;-80
2022/10/12 09:27:21;;;;;;;9.07;6.00;;;19.00;99.90;;;;;;4998781;28;20456;-82
2022/10/12 09:30:06;;;;;;;9.50;5.67;;;19.90;99.90;;;;;;5011529;28;20455;-82
2022/10/12 09:33:13;;;;;;;8.87;5.80;;;21.00;99.90;;;;;;5008766;28;20470;-81
2022/10/12 09:35:58;;;;;;;8.20;6.73;;;22.70;99.90;;;;;;5004026;28;20438;-82
2022/10/12 09:38:42;;;;;;;11.87;6.57;;;23.50;99.90;;;;;;5006028;28;20482;-82
2022/10/12 09:41:34;;;;;;;10.83;6.77;;;24.10;97.40;;;;;;5007122;28;20462;-82
2022/10/12 09:44:30;;;;;;;10.90;7.47;;;24.90;95.60;;;;;;4989919;28;20475;-82
2022/10/12 09:47:32;;;;;;;13.90;6.93;;;24.40;94.30;;;;;;5009915;28;20447;-81
2022/10/12 09:50:52;;;;;;;11.00;6.77;;;24.00;93.60;;;;;;4995071;28;20817;-82
2022/10/12 09:53:45;;;;;;;16.03;6.93;;;23.00;93.80;;;;;;5007190;28;20443;-82
2022/10/12 09:56:43;;;;;;;8.90;5.97;;;21.70;95.20;;;;;;4995954;28;20456;-82
2022/10/12 09:59:33;;;;;;;13.80;7.23;;;20.70;99.30;;;;;;4997743;28;20507;-82
2022/10/12 10:02:20;;;;;;;10.07;7.27;;;20.60;99.90;;;;;;5013009;28;20454;-82
2022/10/12 10:05:25;;;;;;;11.07;6.27;;;21.00;99.90;;;;;;5018895;28;20446;-81
2022/10/12 10:08:20;;;;;;;8.70;6.27;;;20.80;99.90;;;;;;5004914;28;20563;-82
2022/10/12 10:11:12;;;;;;;9.17;7.53;;;20.40;99.90;;;;;;5010155;28;20450;-81
2022/10/12 10:14:00;;;;;;;9.30;7.80;;;19.80;99.90;;;;;;5017087;28;20553;-82
2022/10/12 10:16:49;;;;;;;17.70;8.37;;;19.10;99.90;;;;;;5021591;28;20459;-81
2022/10/12 10:19:35;;;;;;;16.80;6.67;;;20.00;99.90;;;;;;4994273;28;20479;-80
2022/10/12 10:22:21;;;;;;;12.17;8.53;;;21.10;99.90;;;;;;5010098;28;20548;-81
2022/10/12 10:25:06;;;;;;;18.53;7.90;;;21.60;99.90;;;;;;5015880;28;20474;-82
2022/10/12 10:28:19;;;;;;;11.90;7.47;;;22.10;99.90;;;;;;5009353;28;20478;-80
2022/10/12 10:31:05;;;;;;;9.03;7.27;;;22.00;99.90;;;;;;5006961;28;20539;-82
2022/10/12 10:34:11;;;;;;;7.57;6.60;;;22.70;99.00;;;;;;5011403;28;20514;-84
2022/10/12 10:36:59;;;;;;;9.10;6.40;;;22.70;99.00;;;;;;5010315;28;20471;-83
2022/10/12 10:39:47;;;;;;;8.73;7.13;;;22.90;97.60;;;;;;5012466;28;20451;-84
2022/10/12 10:42:33;;;;;;;7.87;7.07;;;22.30;97.80;;;;;;5006719;28;20516;-82
2022/10/12 10:45:28;;;;;;;11.30;6.93;;;22.40;98.30;;;;;;5012156;28;20494;-84
2022/10/12 10:48:18;;;;;;;10.80;6.70;;;22.90;98.30;;;;;;5007853;28;20427;-83
2022/10/12 10:51:05;;;;;;;8.80;7.60;;;23.20;98.50;;;;;;5011278;28;20501;-83
2022/10/12 10:53:50;;;;;;;10.00;6.80;;;23.10;97.50;;;;;;5006044;28;21759;-84
2022/10/12 10:56:35;;;;;;;13.10;7.97;;;22.20;99.80;;;;;;5005962;28;20487;-84
2022/10/12 10:59:42;;;;;;;8.50;6.70;;;22.40;99.20;;;;;;5013142;28;20427;-83
2022/10/12 11:02:45;;;;;;;11.67;7.20;;;22.70;99.70;;;;;;5009625;28;20875;-82
2022/10/12 11:05:37;;;;;;;8.27;6.57;;;23.50;98.60;;;;;;5009325;28;20762;-83
2022/10/12 11:08:25;;;;;;;9.80;7.30;;;23.30;98.70;;;;;;5005936;28;20867;-84
2022/10/12 11:11:19;;;;;;;11.03;8.43;;;24.00;98.20;;;;;;5011305;28;20447;-83
2022/10/12 11:14:24;;;;;;;10.20;7.27;;;23.30;97.60;;;;;;5009647;28;20500;-83
2022/10/12 11:17:17;;;;;;;11.10;7.57;;;23.50;97.80;;;;;;5004143;28;20442;-83
2022/10/12 11:20:32;;;;;;;7.43;6.60;;;22.60;98.70;;;;;;5007585;28;20506;-83
2022/10/12 11:23:34;;;;;;;9.57;7.73;;;23.20;99.50;;;;;;5008497;28;20466;-83
2022/10/12 11:26:28;;;;;;;16.70;7.57;;;24.00;98.90;;;;;;5010084;28;20423;-83
2022/10/12 11:29:16;;;;;;;9.87;8.87;;;24.70;96.70;;;;;;4995973;28;20492;-83
2022/10/12 11:32:17;;;;;;;12.93;8.17;;;22.90;97.60;;;;;;5008959;28;20427;-81
2022/10/12 11:35:06;;;;;;;10.90;8.70;;;23.30;99.50;;;;;;5013574;28;20485;-82
2022/10/12 11:37:58;;;;;;;8.53;6.93;;;24.50;97.20;;;;;;5009840;28;20478;-83
2022/10/12 11:40:49;;;;;;;13.37;8.50;;;24.00;96.50;;;;;;4999703;28;20504;-83
2022/10/12 11:43:39;;;;;;;11.80;7.90;;;23.10;98.70;;;;;;5008223;28;20630;-82
2022/10/12 11:46:40;;;;;;;9.27;7.77;;;24.90;97.10;;;;;;5007131;28;20432;-82
2022/10/12 11:49:30;;;;;;;13.60;8.37;;;25.80;93.90;;;;;;4992272;28;20474;-81
2022/10/12 11:52:16;;;;;;;9.23;8.33;;;25.30;93.40;;;;;;5010180;28;21243;-82
2022/10/12 11:55:30;;;;;;;8.70;7.27;;;24.20;93.90;;;;;;5004511;28;20446;-86
2022/10/12 11:58:25;;;;;;;8.93;7.90;;;23.50;97.00;;;;;;5009879;28;20609;-82
2022/10/12 12:01:33;;;;;;;9.80;7.57;;;24.20;97.10;;;;;;5011618;28;20439;-83
2022/10/12 12:04:27;;;;;;;9.70;7.40;;;25.10;93.80;;;;;;5017159;28;20511;-82
2022/10/12 12:07:42;;;;;;;7.93;7.27;;;24.70;94.80;;;;;;5019997;28;20458;-84
2022/10/12 12:10:43;;;;;;;14.63;8.87;;;22.50;96.20;;;;;;5014060;28;20553;-82
2022/10/12 12:13:28;;;;;;;11.50;7.77;;;21.10;99.90;;;;;;5004418;28;20433;-79
2022/10/12 12:16:22;;;;;;;10.77;7.03;;;22.00;99.90;;;;;;5018825;28;20435;-83
2022/10/12 12:19:42;;;;;;;8.77;6.57;;;21.90;99.90;;;;;;5014638;28;20510;-83
2022/10/12 12:22:42;;;;;;;10.40;7.80;;;23.80;99.80;;;;;;5004305;28;20466;-84
2022/10/12 12:25:30;;;;;;;9.43;7.70;;;24.80;97.00;;;;;;5014954;28;20561;-83
2022/10/12 12:28:23;;;;;;;9.43;6.80;;;25.30;94.30;;;;;;4992316;28;20483;-83
2022/10/12 12:31:23;;;;;;;9.07;7.63;;;23.40;96.70;;;;;;4993069;28;20438;-80
2022/10/12 12:34:15;;;;;;;10.07;7.70;;;22.70;98.30;;;;;;5004889;28;20511;-83
2022/10/12 12:37:10;;;;;;;12.77;7.93;;;22.90;99.60;;;;;;4990327;28;20732;-83
2022/10/12 12:39:58;;;;;;;8.33;7.43;;;23.80;98.70;;;;;;5010077;28;20845;-83
2022/10/12 12:42:42;;;;;;;8.10;7.30;;;25.10;96.30;;;;;;4998556;28;20435;-83
2022/10/12 12:45:40;;;;;;;8.30;6.63;;;25.10;95.70;;;;;;5011548;28;20499;-83
2022/10/12 12:48:58;;;;;;;9.33;6.70;;;25.10;94.40;;;;;;5009276;28;20491;-83
2022/10/12 12:51:43;;;;;;;9.27;7.03;;;24.90;93.90;;;;;;5001410;28;20919;-82
2022/10/12 12:54:28;;;;;;;8.87;7.10;;;25.20;94.10;;;;;;5006174;28;20513;-83
2022/10/12 12:57:26;;;;;;;8.80;7.40;;;25.20;93.40;;;;;;5016284;28;20529;-83
2022/10/12 13:00:21;;;;;;;9.50;7.30;;;23.70;94.40;;;;;;5015085;28;20598;-80
2022/10/12 13:03:25;;;;;;;8.33;6.83;;;23.70;96.40;;;;;;5010062;28;20454;-83
2022/10/12 13:06:42;;;;;;;9.70;6.73;;;25.30;95.20;;;;;;4993777;28;20434;-81
2022/10/12 13:10:05;;;;;;;6.43;5.77;;;24.60;94.10;;;;;;5014283;28;20430;-81
2022/10/12 13:13:10;;;;;;;9.07;6.13;;;25.00;94.90;;;;;;5015456;28;20439;-80
2022/10/12 13:16:13;;;;;;;9.00;6.00;;;26.70;91.50;;;;;;5009561;28;20462;-83
2022/10/12 13:19:04;;;;;;;8.30;6.57;;;27.60;87.90;;;;;;5010466;28;20847;-83
2022/10/12 13:21:53;;;;;;;9.53;6.27;;;26.60;90.20;;;;;;5003143;28;20430;-82
2022/10/12 13:24:49;;;;;;;7.67;6.57;;;25.40;90.80;;;;;;5004726;28;20612;-81
2022/10/12 13:27:46;;;;;;;8.23;6.43;;;25.40;91.70;;;;;;5001568;28;20767;-82
2022/10/12 13:30:40;;;;;;;8.10;6.17;;;25.10;91.00;;;;;;4993227;28;20773;-81
2022/10/12 13:33:31;;;;;;;6.57;5.93;;;24.40;92.20;;;;;;5003012;28;21171;-82
2022/10/12 13:36:24;;;;;;;12.90;6.80;;;25.40;91.80;;;;;;5015970;28;20434;-82
2022/10/12 13:39:22;;;;;;;7.87;7.13;;;26.00;91.30;;;;;;5012591;28;20421;-81
2022/10/12 13:42:12;;;;;;;7.23;6.27;;;25.70;91.90;;;;;;4999405;28;20554;-82
2022/10/12 13:44:57;;;;;;;7.00;6.40;;;25.50;90.50;;;;;;5010521;28;20454;-82
2022/10/12 13:47:42;;;;;;;7.53;6.57;;;25.20;92.10;;;;;;5006296;28;20430;-81
2022/10/12 13:50:28;;;;;;;8.00;6.50;;;26.40;90.50;;;;;;5010697;28;20442;-79
2022/10/12 13:53:14;;;;;;;7.77;7.03;;;27.60;85.30;;;;;;5008644;28;20582;-83
2022/10/12 13:56:09;;;;;;;9.30;6.30;;;27.50;82.50;;;;;;4990383;28;20418;-79
2022/10/12 13:59:01;;;;;;;9.73;6.87;;;27.00;83.70;;;;;;5006233;28;20463;-79
2022/10/12 14:01:49;;;;;;;7.47;6.20;;;25.00;89.90;;;;;;5005497;28;20427;-82
2022/10/12 14:04:35;;;;;;;11.57;6.67;;;25.90;89.00;;;;;;5009566;28;20573;-81
2022/10/12 14:07:30;;;;;;;6.60;5.60;;;26.50;87.90;;;;;;4999362;28;20931;-82
2022/10/12 14:10:20;;;;;;;7.63;5.90;;;27.70;83.60;;;;;;5015049;28;20900;-81
2022/10/12 14:13:05;;;;;;;10.40;6.87;;;26.20;86.40;;;;;;5021472;28;20442;-81
2022/10/12 14:15:50;;;;;;;8.10;6.37;;;25.90;86.60;;;;;;5017115;28;20199;-83
2022/10/12 14:18:38;;;;;;;6.57;5.93;;;25.40;89.20;;;;;;5022856;28;20485;-82
2022/10/12 14:21:26;;;;;;;8.53;6.30;;;24.80;91.30;;;;;;5019986;28;20439;-82
2022/10/12 14:24:15;;;;;;;6.77;6.10;;;24.90;91.70;;;;;;5002892;28;20541;-83
2022/10/12 14:27:02;;;;;;;6.87;6.27;;;24.50;91.40;;;;;;5015045;28;20422;-82
2022/10/12 14:29:47;;;;;;;8.30;6.90;;;25.60;90.60;;;;;;5016924;28;20410;-80
2022/10/12 14:32:39;;;;;;;8.70;6.27;;;24.70;91.80;;;;;;5015059;28;20499;-82
2022/10/12 14:35:28;;;;;;;6.50;5.87;;;25.60;89.40;;;;;;5021468;28;20427;-83
2022/10/12 14:38:43;;;;;;;7.57;6.70;;;24.70;90.50;;;;;;5025302;28;20815;-82
2022/10/12 14:41:42;;;;;;;7.80;6.97;;;25.80;88.70;;;;;;5016274;28;20462;-82
2022/10/12 14:44:27;;;;;;;15.40;7.40;;;25.50;90.20;;;;;;5020499;28;20985;-81